Time;durP1;ratioP1;P1;durP2;ratioP2;P2;SDS_P1;SDS_P2;PMS_P1;PMS_P2;Temp;Humidity;BMP_temperature;BMP_pressure;BME280_temperature;BME280_humidity;BME280_pressure;Samples;Min_cycle;Max_cycle;Signal;HPM_P1;HPM_P2
2023/05/02 00:01:14;;;;;;;27.23;14.53;;;10.60;99.90;;;;;;5030590;28;20029;-47
2023/05/02 00:03:41;;;;;;;26.30;14.37;;;10.60;99.90;;;;;;5012820;28;20041;-47
2023/05/02 00:06:07;;;;;;;31.27;16.03;;;10.60;99.90;;;;;;5011826;28;20128;-47
2023/05/02 00:08:32;;;;;;;27.40;15.57;;;10.60;99.90;;;;;;5030164;28;20104;-47
2023/05/02 00:10:58;;;;;;;30.70;14.43;;;10.60;99.90;;;;;;5030655;28;20033;-46
2023/05/02 00:13:24;;;;;;;30.87;14.73;;;10.70;99.90;;;;;;5030339;28;20026;-51
2023/05/02 00:15:49;;;;;;;31.53;15.50;;;10.80;99.90;;;;;;5030470;28;20030;-52
2023/05/02 00:18:15;;;;;;;35.50;16.23;;;10.80;99.90;;;;;;5030241;28;20406;-46
2023/05/02 00:20:41;;;;;;;32.43;15.60;;;10.80;99.90;;;;;;5030380;28;20498;-46
2023/05/02 00:23:07;;;;;;;32.70;14.97;;;10.80;99.90;;;;;;5030782;28;20029;-47
2023/05/02 00:25:32;;;;;;;32.00;15.30;;;10.80;99.90;;;;;;5030055;28;20033;-46
2023/05/02 00:27:58;;;;;;;34.83;15.87;;;10.80;99.90;;;;;;5030237;28;20034;-45
2023/05/02 00:30:24;;;;;;;31.10;16.43;;;10.90;99.90;;;;;;5030491;28;20406;-46
2023/05/02 00:32:49;;;;;;;32.47;16.17;;;10.80;99.90;;;;;;5030354;28;20030;-49
2023/05/02 00:35:15;;;;;;;34.47;16.40;;;10.80;99.90;;;;;;5030106;28;20034;-46
2023/05/02 00:37:41;;;;;;;34.87;16.47;;;10.80;99.90;;;;;;5030059;28;20037;-47
2023/05/02 00:40:07;;;;;;;33.00;16.53;;;10.70;99.90;;;;;;5012410;28;20057;-46
2023/05/02 00:42:34;;;;;;;30.80;16.67;;;10.60;99.90;;;;;;5030265;28;20036;-45
2023/05/02 00:45:02;;;;;;;38.50;16.70;;;10.50;99.90;;;;;;5029928;28;20034;-47
2023/05/02 00:47:28;;;;;;;39.80;18.13;;;10.50;99.90;;;;;;5029964;28;20038;-47
2023/05/02 00:49:54;;;;;;;31.90;15.87;;;10.40;99.90;;;;;;5029969;28;20040;-48
2023/05/02 00:52:19;;;;;;;39.23;17.03;;;10.40;99.90;;;;;;5030106;28;20108;-46
2023/05/02 00:54:46;;;;;;;32.13;16.23;;;10.30;99.90;;;;;;5029929;28;20100;-47
2023/05/02 00:57:12;;;;;;;33.23;17.13;;;10.30;99.90;;;;;;5012239;28;20455;-46
2023/05/02 00:59:38;;;;;;;40.37;17.83;;;10.30;99.90;;;;;;5012433;28;20132;-47
2023/05/02 01:02:17;;;;;;;41.17;17.57;;;10.20;99.90;;;;;;5030109;28;20444;-47
2023/05/02 01:05:16;;;;;;;38.60;17.10;;;10.10;99.90;;;;;;5029851;28;20049;-46
2023/05/02 01:08:09;;;;;;;39.25;17.58;;;10.10;99.90;;;;;;5029829;28;20123;-46
2023/05/02 01:11:42;;;;;;;40.43;16.90;;;10.10;99.90;;;;;;5030082;28;20026;-47
2023/05/02 01:14:10;;;;;;;37.00;17.20;;;10.20;99.90;;;;;;4945094;29;20711;-49
2023/05/02 01:16:39;;;;;;;43.23;19.23;;;10.20;99.90;;;;;;4918119;29;20428;-48
2023/05/02 01:19:11;;;;;;;42.88;18.63;;;10.20;99.90;;;;;;5009987;28;20641;-48
2023/05/02 01:21:39;;;;;;;38.77;17.67;;;10.20;99.90;;;;;;5015792;28;20041;-49
2023/05/02 01:24:23;;;;;;;42.07;19.03;;;10.30;99.90;;;;;;5033294;28;20441;-47
2023/05/02 01:26:57;;;;;;;43.17;19.13;;;10.30;99.90;;;;;;5033438;28;20091;-51
2023/05/02 01:29:24;;;;;;;42.93;17.93;;;10.30;99.90;;;;;;5033627;28;20492;-46
2023/05/02 01:31:51;;;;;;;41.97;18.07;;;10.30;99.90;;;;;;5015600;28;20037;-47
2023/05/02 01:34:19;;;;;;;39.77;17.50;;;10.30;99.90;;;;;;5033019;28;20034;-51
2023/05/02 01:36:47;;;;;;;40.10;17.13;;;10.30;99.90;;;;;;5015324;28;20041;-45
2023/05/02 01:39:17;;;;;;;37.57;17.13;;;10.20;99.90;;;;;;5015225;28;20060;-49
2023/05/02 01:41:45;;;;;;;34.73;15.60;;;10.30;99.90;;;;;;5015626;28;20056;-46
2023/05/02 01:44:12;;;;;;;41.20;17.47;;;10.30;99.90;;;;;;5033014;28;20312;-50
2023/05/02 01:46:41;;;;;;;34.47;15.77;;;10.30;99.90;;;;;;5033193;28;20037;-48
2023/05/02 01:49:08;;;;;;;34.83;15.17;;;10.30;99.90;;;;;;4989229;23;1133811;-49
2023/05/02 01:51:39;;;;;;;37.80;16.07;;;10.40;99.90;;;;;;5031665;28;20029;-48
2023/05/02 01:54:07;;;;;;;34.87;15.13;;;10.40;99.90;;;;;;5032885;28;20048;-49
2023/05/02 01:56:38;;;;;;;36.45;14.93;;;10.40;99.90;;;;;;5031510;28;20018;-48
2023/05/02 01:59:12;;;;;;;31.37;13.93;;;10.50;99.90;;;;;;5031491;28;20057;-50
2023/05/02 02:01:40;;;;;;;31.80;13.60;;;10.50;99.90;;;;;;5032892;28;20028;-51
2023/05/02 02:04:09;;;;;;;35.27;13.47;;;10.50;99.90;;;;;;5032604;28;20375;-48
2023/05/02 02:06:35;;;;;;;32.67;12.77;;;10.40;99.90;;;;;;5032757;28;20041;-49
2023/05/02 02:09:01;;;;;;;32.83;14.07;;;10.50;99.90;;;;;;5032607;28;20398;-52
2023/05/02 02:11:35;;;;;;;31.67;14.00;;;10.40;99.90;;;;;;5031311;28;20037;-50
2023/05/02 02:14:06;;;;;;;32.63;14.70;;;10.40;99.90;;;;;;5014703;28;20510;-48
2023/05/02 02:16:36;;;;;;;30.17;12.87;;;10.40;99.90;;;;;;5032545;28;20437;-49
2023/05/02 02:19:07;;;;;;;31.77;12.40;;;10.50;99.90;;;;;;5032624;28;20389;-49
2023/05/02 02:21:35;;;;;;;34.83;13.57;;;10.50;99.90;;;;;;5032528;28;20025;-49
2023/05/02 02:24:02;;;;;;;31.67;13.00;;;10.50;99.90;;;;;;5032249;28;20041;-50
2023/05/02 02:26:28;;;;;;;29.10;12.80;;;10.50;99.90;;;;;;5032019;28;20040;-53
2023/05/02 02:28:55;;;;;;;27.77;12.77;;;10.50;99.90;;;;;;5031491;28;20109;-51
2023/05/02 02:31:21;;;;;;;28.27;12.03;;;10.50;99.90;;;;;;5032283;28;20397;-51
2023/05/02 02:33:47;;;;;;;27.13;11.13;;;10.50;99.90;;;;;;5032128;28;20025;-49
2023/05/02 02:36:41;;;;;;;27.30;10.87;;;10.50;99.90;;;;;;5032147;28;20505;-51
2023/05/02 02:39:20;;;;;;;25.10;10.23;;;10.50;99.90;;;;;;5014385;28;20030;-51
2023/05/02 02:42:03;;;;;;;27.30;11.33;;;10.50;99.90;;;;;;5030933;28;20034;-49
2023/05/02 02:44:57;;;;;;;26.20;10.47;;;10.50;99.90;;;;;;5014120;28;20033;-47
2023/05/02 02:48:00;;;;;;;28.07;10.97;;;10.50;99.90;;;;;;5031763;28;20029;-50
2023/05/02 02:50:47;;;;;;;24.03;10.30;;;10.60;99.90;;;;;;5014331;28;20047;-49
2023/05/02 02:53:19;;;;;;;26.00;10.37;;;10.50;99.90;;;;;;5031942;28;20025;-51
2023/05/02 02:55:54;;;;;;;24.77;10.00;;;10.50;99.90;;;;;;5031860;28;20025;-49
2023/05/02 02:58:44;;;;;;;23.87;9.50;;;10.50;99.90;;;;;;5031890;28;20041;-48
2023/05/02 03:01:16;;;;;;;25.80;11.33;;;10.60;99.90;;;;;;5031888;28;20386;-52
2023/05/02 03:03:43;;;;;;;22.97;9.70;;;10.50;99.90;;;;;;5031488;28;20030;-53
2023/05/02 03:06:09;;;;;;;27.07;10.87;;;10.50;99.90;;;;;;5030422;28;20040;-49
2023/05/02 03:08:40;;;;;;;25.00;10.13;;;10.60;99.90;;;;;;5031403;28;20029;-52
2023/05/02 03:11:07;;;;;;;18.77;8.87;;;10.60;99.90;;;;;;5013824;28;20033;-51
2023/05/02 03:13:33;;;;;;;21.03;9.33;;;10.60;99.90;;;;;;5029956;28;20466;-50
2023/05/02 03:16:20;;;;;;;19.60;8.30;;;10.60;99.90;;;;;;5030249;28;20037;-52
2023/05/02 03:18:47;;;;;;;16.23;7.72;;;10.60;99.90;;;;;;5030136;28;20518;-50
2023/05/02 03:21:13;;;;;;;19.43;7.30;;;10.60;99.90;;;;;;5013823;28;20038;-53
2023/05/02 03:23:40;;;;;;;18.73;8.50;;;10.60;99.90;;;;;;5013359;28;20034;-50
2023/05/02 03:26:06;;;;;;;16.27;7.10;;;10.60;99.90;;;;;;5013560;28;20038;-49
2023/05/02 03:28:33;;;;;;;18.90;8.40;;;10.50;99.90;;;;;;5029683;28;20565;-48
2023/05/02 03:31:00;;;;;;;20.13;8.07;;;10.60;99.90;;;;;;5013488;28;20048;-50
2023/05/02 03:33:26;;;;;;;18.20;7.50;;;10.60;99.90;;;;;;5029666;28;20075;-49
2023/05/02 03:35:52;;;;;;;19.60;8.07;;;10.60;99.90;;;;;;5030067;28;20030;-50
2023/05/02 03:38:19;;;;;;;20.70;7.67;;;10.60;99.90;;;;;;5029584;28;20029;-51
2023/05/02 03:40:47;;;;;;;20.42;8.45;;;10.60;99.90;;;;;;5013663;28;20498;-51
2023/05/02 03:43:13;;;;;;;23.17;7.60;;;10.60;99.90;;;;;;5031078;28;20045;-51
2023/05/02 03:45:39;;;;;;;19.20;7.43;;;10.60;99.90;;;;;;5029427;28;20029;-50
2023/05/02 03:48:05;;;;;;;21.47;7.90;;;10.60;99.90;;;;;;5013051;28;20029;-50
2023/05/02 03:50:31;;;;;;;18.70;8.00;;;10.60;99.90;;;;;;5029567;28;20040;-49
2023/05/02 03:52:57;;;;;;;18.20;7.80;;;10.60;99.90;;;;;;5013395;28;20544;-49
2023/05/02 03:55:32;;;;;;;18.03;7.77;;;10.60;99.90;;;;;;5013040;28;20574;-48
2023/05/02 03:57:59;;;;;;;13.83;6.80;;;10.60;99.90;;;;;;5029608;28;20512;-50
2023/05/02 04:00:25;;;;;;;21.13;7.43;;;10.60;99.90;;;;;;5013197;28;20030;-50
2023/05/02 04:03:00;;;;;;;16.30;6.87;;;10.50;99.90;;;;;;5013393;28;20406;-51
2023/05/02 04:05:27;;;;;;;13.77;5.97;;;10.50;99.90;;;;;;5029606;28;20037;-52
2023/05/02 04:07:54;;;;;;;16.83;7.00;;;10.50;99.90;;;;;;5029475;28;20029;-49
2023/05/02 04:10:20;;;;;;;18.43;6.60;;;10.50;99.90;;;;;;5012945;28;20517;-51
2023/05/02 04:12:51;;;;;;;13.37;5.57;;;10.60;99.90;;;;;;5029602;28;20082;-49
2023/05/02 04:15:18;;;;;;;12.87;5.17;;;10.60;99.90;;;;;;5012810;28;20486;-48
2023/05/02 04:17:45;;;;;;;13.07;5.63;;;10.60;99.90;;;;;;5029241;28;20030;-49
2023/05/02 04:20:12;;;;;;;15.97;6.37;;;10.60;99.90;;;;;;5012946;28;20033;-50
2023/05/02 04:22:42;;;;;;;14.07;5.77;;;10.70;99.90;;;;;;5013053;28;20029;-51
2023/05/02 04:25:08;;;;;;;14.47;5.73;;;10.60;99.90;;;;;;5029069;28;20037;-53
2023/05/02 04:27:37;;;;;;;12.15;5.57;;;10.60;99.90;;;;;;5012617;28;20025;-49
2023/05/02 04:30:05;;;;;;;16.67;6.13;;;10.60;99.90;;;;;;5012634;28;20132;-47
2023/05/02 04:32:31;;;;;;;12.83;6.10;;;10.60;99.90;;;;;;5030380;28;20057;-52
2023/05/02 04:34:58;;;;;;;14.07;6.07;;;10.50;99.90;;;;;;5028977;28;20037;-49
2023/05/02 04:37:25;;;;;;;14.97;6.53;;;10.60;99.90;;;;;;5012391;28;20029;-53
2023/05/02 04:39:50;;;;;;;16.07;7.80;;;10.50;99.90;;;;;;5030321;28;20562;-49
2023/05/02 04:42:20;;;;;;;17.45;7.10;;;10.50;99.90;;;;;;5029107;28;20435;-48
2023/05/02 04:44:58;;;;;;;14.65;6.53;;;10.40;99.90;;;;;;5012453;28;20061;-53
2023/05/02 04:47:24;;;;;;;18.70;7.47;;;10.40;99.90;;;;;;5028861;28;20056;-48
2023/05/02 04:49:50;;;;;;;18.13;8.23;;;10.40;99.90;;;;;;5012278;28;20375;-49
2023/05/02 04:52:17;;;;;;;18.13;7.57;;;10.30;99.90;;;;;;5031623;28;20433;-49
2023/05/02 04:54:43;;;;;;;18.50;7.73;;;10.30;99.90;;;;;;5016270;28;20068;-51
2023/05/02 04:57:10;;;;;;;15.80;7.70;;;10.30;99.90;;;;;;5016034;28;20116;-50
2023/05/02 04:59:39;;;;;;;21.40;9.48;;;10.30;99.90;;;;;;5016088;28;20116;-50
2023/05/02 05:02:06;;;;;;;19.27;8.10;;;10.30;99.90;;;;;;5016221;28;20032;-49
2023/05/02 05:04:32;;;;;;;19.47;8.23;;;10.20;99.90;;;;;;5015811;28;20029;-51
2023/05/02 05:06:59;;;;;;;21.70;9.00;;;10.20;99.90;;;;;;5032329;28;20029;-48
2023/05/02 05:09:27;;;;;;;28.37;9.57;;;10.20;99.90;;;;;;5015921;28;20033;-52
2023/05/02 05:11:53;;;;;;;23.93;10.23;;;10.20;99.90;;;;;;5016026;28;20025;-47
2023/05/02 05:14:19;;;;;;;21.60;9.23;;;10.20;99.90;;;;;;5032213;28;20029;-48
2023/05/02 05:16:49;;;;;;;17.50;7.53;;;10.20;99.90;;;;;;5015658;28;20029;-48
2023/05/02 05:19:15;;;;;;;17.93;7.00;;;10.10;99.90;;;;;;5032232;28;20025;-48
2023/05/02 05:21:41;;;;;;;13.33;5.70;;;10.10;99.90;;;;;;5033613;28;20661;-51
2023/05/02 05:24:08;;;;;;;10.87;5.90;;;10.10;99.90;;;;;;5015617;28;20025;-48
2023/05/02 05:26:33;;;;;;;15.23;6.67;;;10.10;99.90;;;;;;5015441;28;20036;-50
2023/05/02 05:29:00;;;;;;;11.07;5.30;;;10.10;99.90;;;;;;5015533;28;20021;-52
2023/05/02 05:31:32;;;;;;;10.97;5.40;;;10.10;99.90;;;;;;5031960;28;20114;-49
2023/05/02 05:34:00;;;;;;;15.50;6.67;;;10.10;99.90;;;;;;5015310;28;20021;-53
2023/05/02 05:36:26;;;;;;;12.63;5.70;;;10.10;99.90;;;;;;5031803;28;20029;-50
2023/05/02 05:38:52;;;;;;;15.87;6.30;;;10.10;99.90;;;;;;5031747;28;20389;-50
2023/05/02 05:41:18;;;;;;;14.07;5.90;;;10.10;99.90;;;;;;5031944;28;20111;-51
2023/05/02 05:43:48;;;;;;;9.37;5.03;;;10.10;99.90;;;;;;5015127;28;20053;-52
2023/05/02 05:46:14;;;;;;;8.90;4.47;;;10.10;99.90;;;;;;5015239;28;20029;-56
2023/05/02 05:48:40;;;;;;;8.57;3.83;;;10.10;99.90;;;;;;5014866;28;20087;-55
2023/05/02 05:51:06;;;;;;;8.87;3.43;;;10.20;99.90;;;;;;5015581;28;20034;-49
2023/05/02 05:53:32;;;;;;;8.63;2.90;;;10.10;99.90;;;;;;5032752;28;20025;-49
2023/05/02 05:56:09;;;;;;;6.40;2.90;;;10.20;99.90;;;;;;5015241;28;20040;-49
2023/05/02 05:58:36;;;;;;;6.67;3.37;;;10.10;99.90;;;;;;5032591;28;20029;-53
2023/05/02 06:01:02;;;;;;;6.13;3.17;;;10.10;99.90;;;;;;5015017;28;20036;-49
2023/05/02 06:03:28;;;;;;;6.90;2.80;;;10.10;99.90;;;;;;5031505;28;20108;-52
2023/05/02 06:05:54;;;;;;;5.73;2.27;;;10.20;99.90;;;;;;5031267;28;20120;-53
2023/05/02 06:08:20;;;;;;;7.30;2.30;;;10.20;99.90;;;;;;5032481;28;20025;-47
2023/05/02 06:10:46;;;;;;;5.07;1.80;;;10.20;99.90;;;;;;5014816;28;20406;-48
2023/05/02 06:13:12;;;;;;;5.47;2.27;;;10.30;99.90;;;;;;5015023;28;20040;-50
2023/05/02 06:15:40;;;;;;;3.80;2.05;;;10.30;99.90;;;;;;5014571;28;20029;-49
2023/05/02 06:18:07;;;;;;;7.00;2.33;;;10.30;99.90;;;;;;5032421;28;20448;-51
2023/05/02 06:20:35;;;;;;;6.30;2.80;;;10.40;99.90;;;;;;5032476;28;20037;-51
2023/05/02 06:23:01;;;;;;;6.63;2.50;;;10.40;99.90;;;;;;5032527;28;20468;-52
2023/05/02 06:25:27;;;;;;;5.10;2.07;;;10.50;99.90;;;;;;5032151;28;20124;-48
2023/05/02 06:27:53;;;;;;;5.20;2.30;;;10.50;99.90;;;;;;5032405;28;20462;-50
2023/05/02 06:30:19;;;;;;;5.37;2.50;;;10.50;99.90;;;;;;5032487;28;20032;-52
2023/05/02 06:32:45;;;;;;;5.30;2.50;;;10.60;99.90;;;;;;5030974;28;20425;-50
2023/05/02 06:35:11;;;;;;;5.40;2.60;;;10.60;99.90;;;;;;5032233;28;20294;-50
2023/05/02 06:37:37;;;;;;;5.73;2.07;;;10.60;99.90;;;;;;5032013;28;20036;-53
2023/05/02 06:40:04;;;;;;;6.97;2.53;;;10.60;99.90;;;;;;5032059;28;20033;-51
2023/05/02 06:42:30;;;;;;;5.77;2.20;;;10.60;99.90;;;;;;5032035;28;20036;-49
2023/05/02 06:44:55;;;;;;;7.33;2.13;;;10.50;99.90;;;;;;5031711;28;20441;-49
2023/05/02 06:47:23;;;;;;;6.20;2.10;;;10.60;99.90;;;;;;5030535;28;20037;-51
2023/05/02 06:49:50;;;;;;;5.70;2.40;;;10.60;99.90;;;;;;5031775;28;20068;-55
2023/05/02 06:52:16;;;;;;;4.77;2.37;;;10.60;99.90;;;;;;5031941;28;20385;-49
2023/05/02 06:54:42;;;;;;;7.30;2.40;;;10.60;99.90;;;;;;5031635;28;20025;-49
2023/05/02 06:57:08;;;;;;;5.50;1.73;;;10.50;99.90;;;;;;5031953;28;20032;-51
2023/05/02 06:59:34;;;;;;;5.33;1.90;;;10.60;99.90;;;;;;5031644;28;20032;-49
2023/05/02 07:01:59;;;;;;;5.80;2.20;;;10.60;99.90;;;;;;5031699;28;20022;-53
2023/05/02 07:04:25;;;;;;;6.37;2.40;;;10.40;99.90;;;;;;5031602;28;20390;-51
2023/05/02 07:06:51;;;;;;;6.07;1.90;;;10.40;99.90;;;;;;5031283;28;20029;-51
2023/05/02 07:09:17;;;;;;;5.13;1.87;;;10.20;99.90;;;;;;5031477;28;20032;-52
2023/05/02 07:11:42;;;;;;;4.77;1.67;;;10.20;99.90;;;;;;5031237;28;20029;-49
2023/05/02 07:14:08;;;;;;;4.87;1.60;;;10.30;99.90;;;;;;5031059;28;20352;-47
2023/05/02 07:16:34;;;;;;;6.17;1.57;;;10.30;99.90;;;;;;5030830;28;20034;-52
2023/05/02 07:19:00;;;;;;;4.30;1.37;;;10.30;99.90;;;;;;5031119;28;20053;-51
2023/05/02 07:21:26;;;;;;;4.13;1.77;;;10.30;99.90;;;;;;5031304;28;20036;-49
2023/05/02 07:23:54;;;;;;;3.53;1.23;;;10.30;99.90;;;;;;5031084;28;20029;-48
2023/05/02 07:26:19;;;;;;;5.07;1.40;;;10.30;99.90;;;;;;5030858;28;20374;-52
2023/05/02 07:28:45;;;;;;;2.50;1.10;;;10.30;99.90;;;;;;5031007;28;20060;-49
2023/05/02 07:31:11;;;;;;;6.57;1.97;;;10.20;99.90;;;;;;5031052;28;20025;-50
2023/05/02 07:33:37;;;;;;;2.47;1.27;;;10.30;99.90;;;;;;5030901;28;20029;-49
2023/05/02 07:36:03;;;;;;;4.20;1.00;;;10.30;99.90;;;;;;5031058;28;20029;-50
2023/05/02 07:38:28;;;;;;;2.87;1.37;;;10.30;99.90;;;;;;5030737;28;20049;-52
2023/05/02 07:40:57;;;;;;;3.13;1.70;;;10.30;99.90;;;;;;5030766;28;20021;-52
2023/05/02 07:43:23;;;;;;;3.30;1.35;;;10.30;99.90;;;;;;5030852;28;20072;-54
2023/05/02 07:45:49;;;;;;;9.43;1.93;;;10.40;99.90;;;;;;5030766;28;20489;-54
2023/05/02 07:48:14;;;;;;;4.03;1.50;;;10.50;99.90;;;;;;5030635;28;20033;-54
2023/05/02 07:50:40;;;;;;;3.80;1.30;;;10.60;99.90;;;;;;5029883;22;20053;-52
2023/05/02 07:53:06;;;;;;;5.47;2.13;;;10.60;99.90;;;;;;5011027;28;20034;-50
2023/05/02 07:55:32;;;;;;;3.27;1.23;;;10.60;99.90;;;;;;5010473;28;20040;-47
2023/05/02 07:57:59;;;;;;;5.57;1.80;;;10.70;99.90;;;;;;5010749;28;20030;-51
2023/05/02 08:00:25;;;;;;;5.23;1.60;;;10.70;99.90;;;;;;5010793;28;20037;-47
2023/05/02 08:02:50;;;;;;;5.30;1.50;;;10.80;99.90;;;;;;5010850;28;20113;-51
2023/05/02 08:05:16;;;;;;;6.60;1.20;;;10.70;99.90;;;;;;4993053;28;20034;-51
2023/05/02 08:07:42;;;;;;;4.53;1.10;;;10.80;99.90;;;;;;5010569;28;20022;-50
2023/05/02 08:10:08;;;;;;;2.23;1.17;;;10.80;99.90;;;;;;5010587;28;20032;-49
2023/05/02 08:12:41;;;;;;;3.73;1.23;;;10.80;99.90;;;;;;5010927;28;20399;-47
2023/05/02 08:15:12;;;;;;;5.53;1.20;;;10.80;99.90;;;;;;5010532;28;20478;-49
2023/05/02 08:17:38;;;;;;;4.00;1.30;;;10.70;99.90;;;;;;5010597;28;20065;-48
2023/05/02 08:20:04;;;;;;;4.40;2.27;;;10.70;99.90;;;;;;5011005;28;20486;-45
2023/05/02 08:22:30;;;;;;;1.20;0.77;;;10.70;99.90;;;;;;5010534;28;20088;-46
2023/05/02 08:24:56;;;;;;;7.37;1.37;;;10.70;99.90;;;;;;5010406;28;20450;-47
2023/05/02 08:27:22;;;;;;;5.20;1.67;;;10.60;99.90;;;;;;5012005;28;20113;-45
2023/05/02 08:29:47;;;;;;;5.83;1.43;;;10.70;99.90;;;;;;5014905;28;20030;-46
2023/05/02 08:32:13;;;;;;;2.53;0.90;;;10.60;99.90;;;;;;5014785;28;20056;-48
2023/05/02 08:34:39;;;;;;;5.23;1.17;;;10.50;99.90;;;;;;5014419;28;20533;-47
2023/05/02 08:37:09;;;;;;;2.07;0.90;;;10.40;99.90;;;;;;5014341;28;20033;-47
2023/05/02 08:39:35;;;;;;;2.00;1.10;;;10.40;99.90;;;;;;5014518;28;20399;-45
2023/05/02 08:42:01;;;;;;;1.47;0.97;;;10.40;99.90;;;;;;5014353;28;20029;-48
2023/05/02 08:44:26;;;;;;;3.73;1.00;;;10.40;99.90;;;;;;5014353;28;20030;-47
2023/05/02 08:46:54;;;;;;;2.23;0.90;;;10.50;99.90;;;;;;5014497;28;20040;-48
2023/05/02 08:49:21;;;;;;;2.43;1.27;;;10.50;99.90;;;;;;5014200;28;20129;-50
2023/05/02 08:51:50;;;;;;;3.50;1.40;;;10.70;99.90;;;;;;5014237;28;20423;-50
2023/05/02 08:54:18;;;;;;;2.53;1.00;;;10.90;99.90;;;;;;5014356;28;20022;-50
2023/05/02 08:56:44;;;;;;;4.63;1.40;;;11.10;99.90;;;;;;5014095;28;20038;-51
2023/05/02 08:59:10;;;;;;;5.23;2.33;;;11.30;99.90;;;;;;5014251;28;20502;-48
2023/05/02 09:01:38;;;;;;;6.57;1.70;;;11.50;99.90;;;;;;5014164;28;20030;-46
2023/05/02 09:04:03;;;;;;;4.93;1.58;;;11.80;99.90;;;;;;5013856;28;20065;-49
2023/05/02 09:06:29;;;;;;;6.38;1.45;;;11.90;99.90;;;;;;5013774;28;20053;-49
2023/05/02 09:08:59;;;;;;;5.20;1.60;;;11.90;99.90;;;;;;5013892;28;20017;-50
2023/05/02 09:11:25;;;;;;;4.32;1.55;;;11.80;99.90;;;;;;5014029;28;20493;-50
2023/05/02 09:13:51;;;;;;;3.25;1.27;;;11.80;99.90;;;;;;5013815;28;20030;-51
2023/05/02 09:16:24;;;;;;;3.53;1.60;;;11.80;99.90;;;;;;5013926;28;20034;-51
2023/05/02 09:18:54;;;;;;;6.75;2.20;;;12.00;99.90;;;;;;5013708;28;20029;-51
2023/05/02 09:21:25;;;;;;;4.97;1.55;;;12.20;99.90;;;;;;5013824;28;20116;-51
2023/05/02 09:23:53;;;;;;;5.13;1.73;;;12.30;99.90;;;;;;5013836;28;20080;-49
2023/05/02 09:26:26;;;;;;;2.45;1.30;;;12.30;99.90;;;;;;5013860;28;20039;-52
2023/05/02 09:28:56;;;;;;;7.65;1.63;;;12.50;99.90;;;;;;5013545;28;20030;-47
2023/05/02 09:31:24;;;;;;;;;;;12.70;99.90;;;;;;5014180;28;20033;-49
2023/05/02 09:33:51;;;;;;;5.30;1.42;;;13.00;99.90;;;;;;5013727;28;20444;-50
2023/05/02 09:36:19;;;;;;;2.83;1.08;;;13.10;99.90;;;;;;5013471;28;20386;-50
2023/05/02 09:38:48;;;;;;;4.70;1.88;;;13.10;99.90;;;;;;5013076;28;20049;-49
2023/05/02 09:41:14;;;;;;;4.53;1.35;;;13.30;99.90;;;;;;5013525;28;20092;-48
2023/05/02 09:43:40;;;;;;;2.47;1.20;;;13.30;99.90;;;;;;5013206;28;20038;-49
2023/05/02 09:46:10;;;;;;;3.28;1.15;;;13.20;99.90;;;;;;5013243;28;20037;-51
2023/05/02 09:48:56;;;;;;;2.80;1.27;;;13.20;99.90;;;;;;5013216;28;20109;-48
2023/05/02 09:51:23;;;;;;;2.20;1.10;;;13.30;99.90;;;;;;5013305;28;20037;-54
2023/05/02 09:53:50;;;;;;;5.05;1.42;;;13.10;99.90;;;;;;5013099;28;20451;-51
2023/05/02 09:56:16;;;;;;;5.13;1.23;;;13.20;99.90;;;;;;5013116;28;20073;-49
2023/05/02 09:58:42;;;;;;;4.88;1.35;;;13.20;99.90;;;;;;5013488;28;20120;-49
2023/05/02 10:01:14;;;;;;;3.85;1.45;;;13.30;99.90;;;;;;5013080;28;20542;-52
2023/05/02 10:03:41;;;;;;;4.20;1.60;;;13.70;99.90;;;;;;5012939;28;20041;-48
2023/05/02 10:06:08;;;;;;;4.90;1.30;;;13.70;99.90;;;;;;5012970;28;20839;-51
2023/05/02 10:08:35;;;;;;;6.97;1.73;;;13.60;99.90;;;;;;5012572;28;20033;-49
2023/05/02 10:11:06;;;;;;;4.32;1.67;;;13.20;99.90;;;;;;5013189;28;20050;-52
2023/05/02 10:13:33;;;;;;;3.20;1.30;;;13.00;99.90;;;;;;5012948;28;20079;-49
2023/05/02 10:16:04;;;;;;;5.38;1.52;;;12.60;99.90;;;;;;5012930;28;20365;-51
2023/05/02 10:18:52;;;;;;;4.03;1.58;;;12.40;99.90;;;;;;5012657;28;20029;-50
2023/05/02 10:21:28;;;;;;;3.72;1.38;;;12.30;99.90;;;;;;5013119;28;20087;-48
2023/05/02 10:23:55;;;;;;;5.20;1.50;;;12.10;99.90;;;;;;5012816;28;20042;-48
2023/05/02 10:26:22;;;;;;;3.90;1.63;;;12.10;99.90;;;;;;5012364;28;20033;-51
2023/05/02 10:28:49;;;;;;;4.78;1.70;;;11.90;99.90;;;;;;5012536;28;20113;-52
2023/05/02 10:31:16;;;;;;;6.85;1.67;;;11.80;99.90;;;;;;5012623;28;20034;-52
2023/05/02 10:33:42;;;;;;;5.65;1.13;;;11.70;99.90;;;;;;5012287;28;20041;-50
2023/05/02 10:36:11;;;;;;;3.67;1.27;;;11.70;99.90;;;;;;5012493;28;20466;-48
2023/05/02 10:38:38;;;;;;;3.22;1.40;;;11.70;99.90;;;;;;5012357;28;20034;-53
2023/05/02 10:41:11;;;;;;;3.30;1.38;;;11.70;99.90;;;;;;5012370;28;20470;-48
2023/05/02 10:43:37;;;;;;;5.25;2.00;;;11.70;99.90;;;;;;5012260;28;20049;-51
2023/05/02 10:46:30;;;;;;;4.53;1.52;;;11.70;99.90;;;;;;5012311;28;20034;-48
2023/05/02 10:49:07;;;;;;;3.90;1.75;;;11.50;99.90;;;;;;5012053;28;20106;-48
2023/05/02 10:51:34;;;;;;;4.47;1.50;;;11.40;99.90;;;;;;5012259;28;20037;-49
2023/05/02 10:54:18;;;;;;;4.13;1.60;;;11.20;99.90;;;;;;5011840;28;20112;-49
2023/05/02 10:57:07;;;;;;;3.37;1.23;;;11.20;99.90;;;;;;5011923;28;20113;-49
2023/05/02 10:59:37;;;;;;;3.28;1.45;;;11.20;99.90;;;;;;5012190;28;20392;-51
2023/05/02 11:02:03;;;;;;;3.88;1.33;;;11.40;99.90;;;;;;5012118;28;20044;-47
2023/05/02 11:04:58;;;;;;;4.55;1.13;;;11.40;99.90;;;;;;5011764;28;20138;-49
2023/05/02 11:07:24;;;;;;;3.97;1.40;;;11.40;99.90;;;;;;5011764;28;20044;-51
2023/05/02 11:09:50;;;;;;;3.70;1.40;;;11.60;99.90;;;;;;5012036;28;20389;-49
2023/05/02 11:12:48;;;;;;;4.53;1.20;;;11.80;99.90;;;;;;5012028;28;20109;-48
2023/05/02 11:15:39;;;;;;;5.07;1.30;;;12.10;99.90;;;;;;5011612;28;20077;-50
2023/05/02 11:18:06;;;;;;;5.35;1.50;;;12.20;99.90;;;;;;5002660;28;20410;-46
2023/05/02 11:20:36;;;;;;;3.97;1.50;;;12.20;99.90;;;;;;5011569;28;20541;-48
2023/05/02 11:23:14;;;;;;;4.13;1.85;;;12.40;99.90;;;;;;5011751;28;20426;-46
2023/05/02 11:25:59;;;;;;;4.43;1.67;;;12.60;99.90;;;;;;5011549;28;20072;-49
2023/05/02 11:28:37;;;;;;;5.97;1.55;;;13.00;99.90;;;;;;5011550;28;20034;-47
2023/05/02 11:31:27;;;;;;;4.72;1.73;;;13.30;99.90;;;;;;5011637;28;20025;-47
2023/05/02 11:33:57;;;;;;;5.03;1.58;;;13.60;99.90;;;;;;5011490;28;20061;-50
2023/05/02 11:36:29;;;;;;;3.80;1.77;;;13.70;99.80;;;;;;5011228;28;20037;-47
2023/05/02 11:38:55;;;;;;;3.42;1.48;;;14.30;97.70;;;;;;5011477;28;20120;-46
2023/05/02 11:41:21;;;;;;;5.93;1.92;;;14.20;96.60;;;;;;5011643;28;20109;-49
2023/05/02 11:43:46;;;;;;;4.30;1.40;;;14.00;98.30;;;;;;5011463;28;20464;-49
2023/05/02 11:46:12;;;;;;;3.45;1.55;;;13.50;99.20;;;;;;5011580;28;20030;-48
2023/05/02 11:48:38;;;;;;;4.60;1.80;;;13.50;98.50;;;;;;5011270;28;20125;-51
2023/05/02 11:51:05;;;;;;;5.38;1.70;;;13.20;99.90;;;;;;5011319;28;20120;-48
2023/05/02 11:53:32;;;;;;;3.53;2.05;;;13.20;99.00;;;;;;5011315;28;20072;-49
2023/05/02 11:56:01;;;;;;;3.17;1.70;;;13.40;99.90;;;;;;5011509;28;20160;-51
2023/05/02 11:58:31;;;;;;;6.15;1.75;;;13.80;99.50;;;;;;5011274;28;20409;-51
2023/05/02 12:00:57;;;;;;;4.55;2.42;;;14.00;97.80;;;;;;5011307;28;20061;-48
2023/05/02 12:03:30;;;;;;;5.97;2.97;;;14.10;98.70;;;;;;5011507;28;20037;-48
2023/05/02 12:06:08;;;;;;;6.10;3.60;;;14.20;97.70;;;;;;5011134;28;20501;-46
2023/05/02 12:08:34;;;;;;;5.78;2.75;;;14.00;97.60;;;;;;5011000;28;20037;-47
2023/05/02 12:11:00;;;;;;;6.82;2.63;;;13.70;98.00;;;;;;5011262;28;20022;-50
2023/05/02 12:13:26;;;;;;;5.25;1.98;;;13.70;98.00;;;;;;5011116;28;20105;-50
2023/05/02 12:15:53;;;;;;;2.90;1.60;;;13.80;97.70;;;;;;5011151;28;20038;-52
2023/05/02 12:18:25;;;;;;;4.45;1.70;;;13.60;97.20;;;;;;5011150;28;20522;-52
2023/05/02 12:20:53;;;;;;;4.72;1.77;;;13.60;97.70;;;;;;5010918;28;20092;-52
2023/05/02 12:23:21;;;;;;;4.20;1.38;;;13.70;97.70;;;;;;5010279;28;20037;-45
2023/05/02 12:25:51;;;;;;;3.20;1.45;;;13.80;96.70;;;;;;5010425;28;20033;-47
2023/05/02 12:28:19;;;;;;;1.98;0.93;;;13.80;96.70;;;;;;5010233;28;20062;-44
2023/05/02 12:30:49;;;;;;;5.05;1.92;;;13.80;96.80;;;;;;5009545;28;20491;-44
2023/05/02 12:33:16;;;;;;;3.10;1.42;;;13.70;96.90;;;;;;5010917;28;20105;-43
2023/05/02 12:35:42;;;;;;;5.15;2.15;;;13.70;96.80;;;;;;5010570;28;20447;-48
2023/05/02 12:38:14;;;;;;;3.63;1.50;;;13.60;96.40;;;;;;5010344;28;20033;-53
2023/05/02 12:40:56;;;;;;;3.45;1.65;;;13.40;95.50;;;;;;5010730;28;20038;-50
2023/05/02 12:43:22;;;;;;;2.70;1.35;;;13.40;95.30;;;;;;5010612;28;20037;-50
2023/05/02 12:45:49;;;;;;;3.75;1.98;;;13.30;97.30;;;;;;5010638;28;20033;-48
2023/05/02 12:48:26;;;;;;;3.72;1.73;;;13.40;97.30;;;;;;5010374;28;20401;-48
2023/05/02 12:50:54;;;;;;;2.75;1.35;;;13.30;96.00;;;;;;5010425;28;20030;-52